createdAt,value
2023-04-16T00:01:57.648Z,8.52
2023-04-16T00:04:26.948Z,8.45
2023-04-16T00:07:03.424Z,8.37
2023-04-16T00:09:32.403Z,8.66
2023-04-16T00:12:01.864Z,8.79
2023-04-16T00:14:32.247Z,8.76
2023-04-16T00:17:01.301Z,7.99
2023-04-16T00:19:30.330Z,8.49
2023-04-16T00:21:59.372Z,8.57
2023-04-16T00:24:32.343Z,8.28
2023-04-16T00:27:01.724Z,8.13
2023-04-16T00:29:34.873Z,8.30
2023-04-16T00:32:04.418Z,8.25
2023-04-16T00:34:33.564Z,8.39
2023-04-16T00:37:03.296Z,8.55
2023-04-16T00:39:32.279Z,8.44
2023-04-16T00:42:01.903Z,8.57
2023-04-16T00:44:31.012Z,8.65
2023-04-16T00:47:01.376Z,8.24
2023-04-16T00:49:32.348Z,8.61
2023-04-16T00:52:03.400Z,8.31
2023-04-16T00:54:33.647Z,8.33
2023-04-16T00:57:03.132Z,8.39
2023-04-16T00:59:34.080Z,8.55
2023-04-16T01:02:04.580Z,8.54
2023-04-16T01:04:34.204Z,8.38
2023-04-16T01:07:03.284Z,8.61
2023-04-16T01:09:32.201Z,8.60
2023-04-16T01:12:02.178Z,8.35
2023-04-16T01:14:36.241Z,8.40
2023-04-16T01:17:06.743Z,8.83
2023-04-16T01:19:37.320Z,8.74
2023-04-16T01:22:07.892Z,8.53
2023-04-16T01:24:37.528Z,8.45
2023-04-16T01:27:06.735Z,8.40
2023-04-16T01:29:36.165Z,8.39
2023-04-16T01:32:08.280Z,8.46
2023-04-16T01:34:39.528Z,8.77
2023-04-16T01:37:09.995Z,8.52
2023-04-16T01:39:40.229Z,8.56
2023-04-16T01:42:11.019Z,8.48
2023-04-16T01:44:40.221Z,8.39
2023-04-16T01:47:09.775Z,8.45
2023-04-16T01:49:39.367Z,8.38
2023-04-16T01:52:10.035Z,8.42
2023-04-16T01:54:39.129Z,8.49
2023-04-16T01:57:08.400Z,8.69
2023-04-16T01:59:40.672Z,8.74
2023-04-16T02:02:16.358Z,8.91
2023-04-16T02:04:46.676Z,8.69
2023-04-16T02:07:17.052Z,8.55
2023-04-16T02:09:46.097Z,8.34
2023-04-16T02:12:15.750Z,9.03
2023-04-16T02:14:45.201Z,8.45
2023-04-16T02:17:17.254Z,8.61
2023-04-16T02:19:49.863Z,8.59
2023-04-16T02:22:20.655Z,8.73
2023-04-16T02:24:51.220Z,8.81
2023-04-16T02:27:20.498Z,8.62
2023-04-16T02:29:53.369Z,8.74
2023-04-16T02:32:22.464Z,8.62
2023-04-16T02:34:51.911Z,8.54
2023-04-16T02:37:22.363Z,8.73
2023-04-16T02:39:53.356Z,8.72
2023-04-16T02:42:22.900Z,8.45
2023-04-16T02:44:51.948Z,8.54
2023-04-16T02:47:21.193Z,8.74
2023-04-16T02:49:50.337Z,8.55
2023-04-16T02:52:19.447Z,8.33
2023-04-16T02:54:49.998Z,8.84
2023-04-16T02:57:19.085Z,8.65
2023-04-16T02:59:48.106Z,8.85
2023-04-16T03:02:17.294Z,8.88
2023-04-16T03:04:46.720Z,8.86
2023-04-16T03:07:16.009Z,8.75
2023-04-16T03:09:45.412Z,8.89
2023-04-16T03:12:16.136Z,9.12
2023-04-16T03:14:45.151Z,8.90
2023-04-16T03:17:14.882Z,8.85
2023-04-16T03:19:43.853Z,8.83
2023-04-16T03:22:13.018Z,9.13
2023-04-16T03:24:42.046Z,8.96
2023-04-16T03:27:10.992Z,9.08
2023-04-16T03:29:41.639Z,8.82
2023-04-16T03:32:12.613Z,8.96
2023-04-16T03:34:41.878Z,9.28
2023-04-16T03:37:13.414Z,9.08
2023-04-16T03:39:42.620Z,9.06
2023-04-16T03:42:13.351Z,8.91
2023-04-16T03:44:45.037Z,8.78
2023-04-16T03:47:14.724Z,8.80
2023-04-16T03:49:43.942Z,8.76
2023-04-16T03:52:13.604Z,8.78
2023-04-16T03:54:42.839Z,8.82
2023-04-16T03:57:29.595Z,8.89
2023-04-16T04:00:06.187Z,8.77
2023-04-16T04:02:43.613Z,8.89
2023-04-16T04:05:21.106Z,9.06
2023-04-16T04:07:50.988Z,9.08
2023-04-16T04:10:20.029Z,9.09
2023-04-16T04:12:58.708Z,9.33
2023-04-16T04:15:29.303Z,9.06
2023-04-16T04:17:59.323Z,8.92
2023-04-16T04:20:28.563Z,8.95
2023-04-16T04:22:57.779Z,9.18
2023-04-16T04:25:29.919Z,9.05
2023-04-16T04:28:01.498Z,9.29
2023-04-16T04:30:32.518Z,9.36
2023-04-16T04:33:01.633Z,9.15
2023-04-16T04:35:31.851Z,9.29
2023-04-16T04:38:03.101Z,8.97
2023-04-16T04:40:32.678Z,9.08
2023-04-16T04:43:01.834Z,9.18
2023-04-16T04:45:32.634Z,9.61
2023-04-16T04:48:02.221Z,8.83
2023-04-16T04:50:31.985Z,9.25
2023-04-16T04:53:01.274Z,9.10
2023-04-16T04:55:30.576Z,9.02
2023-04-16T04:58:00.749Z,9.27
2023-04-16T05:00:30.064Z,9.32
2023-04-16T05:03:04.191Z,9.49
2023-04-16T05:05:36.966Z,9.56
2023-04-16T05:08:06.616Z,9.42
2023-04-16T05:10:35.733Z,9.40
2023-04-16T05:13:04.979Z,9.39
2023-04-16T05:15:34.108Z,9.71
2023-04-16T05:18:04.634Z,9.73
2023-04-16T05:20:34.036Z,9.84
2023-04-16T05:23:03.140Z,9.65
2023-04-16T05:25:33.869Z,9.92
2023-04-16T05:28:03.231Z,9.67
2023-04-16T05:31:03.949Z,9.92
2023-04-16T05:33:34.556Z,9.47
2023-04-16T05:36:03.626Z,9.96
2023-04-16T05:38:35.338Z,9.79
2023-04-16T05:41:07.631Z,9.86
2023-04-16T05:43:38.999Z,9.42
2023-04-16T05:46:08.332Z,9.80
2023-04-16T05:48:38.780Z,10.13
2023-04-16T05:51:10.949Z,9.92
2023-04-16T05:53:41.856Z,9.73
2023-04-16T05:56:10.892Z,10.10
2023-04-16T05:58:40.289Z,10.43
2023-04-16T06:01:09.580Z,10.17
2023-04-16T06:03:43.213Z,10.21
2023-04-16T06:06:12.459Z,10.23
2023-04-16T06:08:41.409Z,10.49
2023-04-16T06:11:10.837Z,10.56
2023-04-16T06:13:40.971Z,10.23
2023-04-16T06:16:13.059Z,10.19
2023-04-16T06:18:43.576Z,10.47
2023-04-16T06:21:15.943Z,10.29
2023-04-16T06:23:45.192Z,10.22
2023-04-16T06:26:15.804Z,10.20
2023-04-16T06:28:45.024Z,10.02
2023-04-16T06:31:14.422Z,10.21
2023-04-16T06:33:56.592Z,10.41
2023-04-16T06:36:29.296Z,9.05
2023-04-16T06:39:00.466Z,10.45
2023-04-16T06:41:29.750Z,10.72
2023-04-16T06:44:09.875Z,10.60
2023-04-16T06:46:39.213Z,10.56
2023-04-16T06:49:09.989Z,10.75
2023-04-16T06:51:39.760Z,10.93
2023-04-16T06:54:08.864Z,10.86
2023-04-16T06:56:40.645Z,10.94
2023-04-16T06:59:10.120Z,11.11
2023-04-16T07:01:41.525Z,10.37
2023-04-16T07:04:13.099Z,10.71
2023-04-16T07:06:44.361Z,10.63
2023-04-16T07:09:15.791Z,10.73
2023-04-16T07:11:45.823Z,10.66
2023-04-16T07:14:17.987Z,10.36
2023-04-16T07:16:47.186Z,10.35
2023-04-16T07:19:17.611Z,9.96
2023-04-16T07:21:46.764Z,9.97
2023-04-16T07:24:15.966Z,10.52
2023-04-16T07:26:56.907Z,10.54
2023-04-16T07:30:19.166Z,9.84
2023-04-16T07:32:57.971Z,10.88
2023-04-16T07:35:28.486Z,11.16
2023-04-16T07:37:57.590Z,10.95
2023-04-16T07:40:26.942Z,11.09
2023-04-16T07:42:56.793Z,10.79
2023-04-16T07:45:25.904Z,11.02
2023-04-16T07:47:55.150Z,11.03
2023-04-16T07:50:27.084Z,10.77
2023-04-16T07:52:58.851Z,10.73
2023-04-16T07:58:33.989Z,11.18
2023-04-16T08:01:03.988Z,11.64
2023-04-16T08:03:33.458Z,11.07
2023-04-16T08:06:02.922Z,10.84
2023-04-16T08:08:36.521Z,11.17
2023-04-16T08:11:06.107Z,11.34
2023-04-16T08:13:35.545Z,10.88
2023-04-16T08:16:09.962Z,11.32
2023-04-16T08:18:39.224Z,11.14
2023-04-16T08:21:11.378Z,10.80
2023-04-16T08:23:41.815Z,11.27
2023-04-16T08:26:20.594Z,10.74
2023-04-16T08:28:54.860Z,11.09
2023-04-16T08:31:24.489Z,10.87
2023-04-16T08:34:19.568Z,11.16
2023-04-16T08:36:49.233Z,10.19
2023-04-16T08:39:23.335Z,10.74
2023-04-16T08:41:56.268Z,11.18
2023-04-16T08:44:28.543Z,11.13
2023-04-16T08:46:59.317Z,11.41
2023-04-16T08:49:29.304Z,11.11
2023-04-16T08:51:58.879Z,11.02
2023-04-16T08:54:45.090Z,11.51
2023-04-16T08:57:18.560Z,11.58
2023-04-16T08:59:48.364Z,11.64
2023-04-16T09:02:19.006Z,11.40
2023-04-16T09:04:49.970Z,11.49
2023-04-16T09:07:20.873Z,11.41
2023-04-16T09:09:55.129Z,11.52
2023-04-16T09:12:25.319Z,11.56
2023-04-16T09:14:54.649Z,11.68
2023-04-16T09:17:24.189Z,11.56
2023-04-16T09:19:53.646Z,11.49
2023-04-16T09:22:23.183Z,11.07
2023-04-16T09:24:54.156Z,11.06
2023-04-16T09:27:25.474Z,11.37
2023-04-16T09:29:58.049Z,11.57
2023-04-16T09:32:28.903Z,11.50
2023-04-16T09:34:59.989Z,11.59
2023-04-16T09:37:31.185Z,11.31
2023-04-16T09:40:06.314Z,11.07
2023-04-16T09:42:37.637Z,11.19
2023-04-16T09:45:08.037Z,11.52
2023-04-16T09:47:42.163Z,11.19
2023-04-16T09:50:20.370Z,11.49
2023-04-16T09:52:52.310Z,11.56
2023-04-16T09:55:28.960Z,10.70
2023-04-16T09:58:01.769Z,11.11
2023-04-16T10:00:31.902Z,10.90
2023-04-16T10:03:08.317Z,10.87
2023-04-16T10:05:37.956Z,10.65
2023-04-16T10:08:19.672Z,10.71
2023-04-16T10:10:52.890Z,10.63
2023-04-16T10:13:27.778Z,11.27
2023-04-16T10:16:00.111Z,11.43
2023-04-16T10:18:32.767Z,11.64
2023-04-16T10:21:04.570Z,11.88
2023-04-16T10:23:34.432Z,10.77
2023-04-16T10:26:04.832Z,11.05
2023-04-16T10:28:35.567Z,10.81
2023-04-16T10:31:09.143Z,11.60
2023-04-16T10:33:44.684Z,11.10
2023-04-16T10:36:15.421Z,11.55
2023-04-16T10:38:50.544Z,11.42
2023-04-16T10:41:21.966Z,11.64
2023-04-16T10:43:52.435Z,11.22
2023-04-16T10:46:23.664Z,11.76
2023-04-16T10:48:55.452Z,11.68
2023-04-16T10:51:29.936Z,11.42
2023-04-16T10:54:03.938Z,11.13
2023-04-16T10:56:37.500Z,11.73
2023-04-16T10:59:27.883Z,11.75
2023-04-16T11:02:02.422Z,11.11
2023-04-16T11:04:36.332Z,11.32
2023-04-16T11:07:08.219Z,11.57
2023-04-16T11:09:54.695Z,11.31
2023-04-16T11:12:30.252Z,11.64
2023-04-16T11:15:01.904Z,11.19
2023-04-16T11:18:00.628Z,11.12
2023-04-16T11:20:33.221Z,11.59
2023-04-16T11:23:02.391Z,11.48
2023-04-16T11:25:34.270Z,11.10
2023-04-16T11:28:04.887Z,11.22
2023-04-16T11:30:35.582Z,11.15
2023-04-16T11:33:05.281Z,11.11
2023-04-16T11:35:34.704Z,11.72
2023-04-16T11:38:06.081Z,11.30
2023-04-16T11:40:36.130Z,11.27
2023-04-16T11:43:17.856Z,11.12
2023-04-16T11:46:00.608Z,11.20
2023-04-16T11:48:47.909Z,10.80
2023-04-16T11:51:17.473Z,11.40
2023-04-16T11:53:53.004Z,11.56
2023-04-16T11:56:29.500Z,11.86
2023-04-16T11:59:24.650Z,11.38
2023-04-16T12:01:57.759Z,10.86
2023-04-16T12:04:59.576Z,10.26
2023-04-16T12:07:28.874Z,11.50
2023-04-16T12:10:07.814Z,11.24
2023-04-16T12:12:43.169Z,11.49
2023-04-16T12:15:18.160Z,11.14
2023-04-16T12:17:50.660Z,11.21
2023-04-16T12:20:30.807Z,10.78
2023-04-16T12:23:01.546Z,11.15
2023-04-16T12:25:30.940Z,12.12
2023-04-16T12:28:00.251Z,12.01
2023-04-16T12:30:35.488Z,11.81
2023-04-16T12:33:19.128Z,11.44
2023-04-16T12:35:48.686Z,11.39
2023-04-16T12:38:22.829Z,11.60
2023-04-16T12:41:02.460Z,11.61
2023-04-16T12:43:31.867Z,11.48
2023-04-16T12:46:05.863Z,11.27
2023-04-16T12:48:35.163Z,11.47
2023-04-16T12:51:08.110Z,11.35
2023-04-16T12:53:37.336Z,11.54
2023-04-16T12:56:06.651Z,10.99
2023-04-16T12:58:36.034Z,11.50
2023-04-16T13:01:06.802Z,11.42
2023-04-16T13:03:37.382Z,11.98
2023-04-16T13:06:06.855Z,11.66
2023-04-16T13:08:36.279Z,11.79
2023-04-16T13:11:07.990Z,11.09
2023-04-16T13:13:37.226Z,11.12
2023-04-16T13:16:12.721Z,11.48
2023-04-16T13:18:42.249Z,11.35
2023-04-16T13:21:12.157Z,11.11
2023-04-16T13:23:44.043Z,11.13
2023-04-16T13:26:16.396Z,11.53
2023-04-16T13:28:48.460Z,11.07
2023-04-16T13:31:23.701Z,10.85
2023-04-16T13:33:53.396Z,11.54
2023-04-16T13:36:27.409Z,11.47
2023-04-16T13:38:59.311Z,11.60
2023-04-16T13:41:32.708Z,11.42
2023-04-16T13:44:01.861Z,11.25
2023-04-16T13:46:32.962Z,11.80
2023-04-16T13:49:05.608Z,11.77
2023-04-16T13:51:53.484Z,11.50
2023-04-16T13:54:26.290Z,11.62
2023-04-16T13:57:44.940Z,11.38
2023-04-16T14:00:16.800Z,11.25
2023-04-16T14:02:48.949Z,11.10
2023-04-16T14:05:24.132Z,11.56
2023-04-16T14:07:55.385Z,11.78
2023-04-16T14:10:25.069Z,11.78
2023-04-16T14:12:54.591Z,11.39
2023-04-16T14:15:27.608Z,11.14
2023-04-16T14:17:58.587Z,11.43
2023-04-16T14:20:28.471Z,11.37
2023-04-16T14:23:00.170Z,11.35
2023-04-16T14:25:31.736Z,11.27
2023-04-16T14:28:01.122Z,10.92
2023-04-16T14:30:30.631Z,10.78
2023-04-16T14:33:01.409Z,11.10
2023-04-16T14:35:33.011Z,11.32
2023-04-16T14:38:02.773Z,11.03
2023-04-16T14:40:33.303Z,11.25
2023-04-16T14:43:02.396Z,11.28
2023-04-16T14:45:35.499Z,11.48
2023-04-16T14:48:09.570Z,11.54
2023-04-16T14:50:43.664Z,11.42
2023-04-16T14:53:13.073Z,11.39
2023-04-16T14:55:52.118Z,11.25
2023-04-16T14:58:22.067Z,11.53
2023-04-16T15:00:51.284Z,11.54
2023-04-16T15:03:22.343Z,11.25
2023-04-16T15:05:55.825Z,10.96
2023-04-16T15:08:25.866Z,10.77
2023-04-16T15:10:55.048Z,11.13
2023-04-16T15:13:24.122Z,10.73
2023-04-16T15:15:57.188Z,10.76
2023-04-16T15:18:27.645Z,11.02
2023-04-16T15:20:59.378Z,10.77
2023-04-16T15:23:31.591Z,11.14
2023-04-16T15:26:01.055Z,11.32
2023-04-16T15:28:32.969Z,11.16
2023-04-16T15:31:02.101Z,10.86
2023-04-16T15:33:33.925Z,10.40
2023-04-16T15:36:03.934Z,10.99
2023-04-16T15:38:34.858Z,11.08
2023-04-16T15:41:04.132Z,10.46
2023-04-16T15:43:33.299Z,10.84
2023-04-16T15:46:07.391Z,10.73
2023-04-16T15:48:38.236Z,11.02
2023-04-16T15:51:08.299Z,10.89
2023-04-16T15:53:41.435Z,10.64
2023-04-16T15:56:15.043Z,10.55
2023-04-16T15:58:44.707Z,10.56
2023-04-16T16:01:14.233Z,10.93
2023-04-16T16:03:45.203Z,10.51
2023-04-16T16:06:17.983Z,10.81
2023-04-16T16:08:47.942Z,10.78
2023-04-16T16:11:20.291Z,10.74
2023-04-16T16:13:49.660Z,10.62
2023-04-16T16:19:07.015Z,11.15
2023-04-16T16:21:36.331Z,10.88
2023-04-16T16:24:05.978Z,10.91
2023-04-16T16:26:35.268Z,10.92
2023-04-16T16:29:04.575Z,10.92
2023-04-16T16:31:33.991Z,10.66
2023-04-16T16:34:04.758Z,10.95
2023-04-16T16:36:36.893Z,10.58
2023-04-16T16:39:06.023Z,10.64
2023-04-16T16:41:37.692Z,10.81
2023-04-16T16:44:07.382Z,10.76
2023-04-16T16:46:36.720Z,10.87
2023-04-16T16:49:09.443Z,10.72
2023-04-16T16:51:41.853Z,10.63
2023-04-16T16:54:10.968Z,10.64
2023-04-16T16:56:40.128Z,10.60
2023-04-16T16:59:09.797Z,10.47
2023-04-16T17:01:42.528Z,10.47
2023-04-16T17:04:20.067Z,10.24
2023-04-16T17:06:49.872Z,10.44
2023-04-16T17:09:20.273Z,10.44
2023-04-16T17:11:49.345Z,10.54
2023-04-16T17:14:18.436Z,10.49
2023-04-16T17:16:49.890Z,10.62
2023-04-16T17:19:22.141Z,10.69
2023-04-16T17:22:21.965Z,10.63
2023-04-16T17:24:57.698Z,9.92
2023-04-16T17:27:27.992Z,10.68
2023-04-16T17:30:00.303Z,10.41
2023-04-16T17:32:29.873Z,10.37
2023-04-16T17:35:01.944Z,10.71
2023-04-16T17:37:31.692Z,10.65
2023-04-16T17:40:00.923Z,10.77
2023-04-16T17:42:31.945Z,10.75
2023-04-16T17:45:07.487Z,10.63
2023-04-16T17:47:51.890Z,10.94
2023-04-16T17:50:33.030Z,10.71
2023-04-16T17:53:05.259Z,10.47
2023-04-16T17:56:11.130Z,10.79
2023-04-16T17:58:49.856Z,10.50
2023-04-16T18:01:24.003Z,10.41
2023-04-16T18:03:56.483Z,10.26
2023-04-16T18:06:32.282Z,10.01
2023-04-16T18:09:19.208Z,10.17
2023-04-16T18:11:59.310Z,9.78
2023-04-16T18:14:29.138Z,10.77
2023-04-16T18:16:58.535Z,10.76
2023-04-16T18:19:28.421Z,10.75
2023-04-16T18:22:11.169Z,10.74
2023-04-16T18:24:46.867Z,10.41
2023-04-16T18:27:20.492Z,10.88
2023-04-16T18:29:58.214Z,9.65
2023-04-16T18:32:37.254Z,10.37
2023-04-16T18:35:19.729Z,10.48
2023-04-16T18:37:55.950Z,10.71
2023-04-16T18:40:41.657Z,10.41
2023-04-16T18:43:15.337Z,10.84
2023-04-16T18:45:46.985Z,10.85
2023-04-16T18:48:20.009Z,9.65
2023-04-16T18:50:59.042Z,10.11
2023-04-16T18:53:33.078Z,10.14
2023-04-16T18:56:06.143Z,10.58
2023-04-16T18:58:37.267Z,10.64
2023-04-16T19:01:11.261Z,10.87
2023-04-16T19:03:42.393Z,10.91
2023-04-16T19:06:13.554Z,10.47
2023-04-16T19:08:56.322Z,9.57
2023-04-16T19:11:26.032Z,10.54
2023-04-16T19:13:56.139Z,10.92
2023-04-16T19:16:28.179Z,10.53
2023-04-16T19:19:00.493Z,10.95
2023-04-16T19:21:39.175Z,10.89
2023-04-16T19:24:21.205Z,10.49
2023-04-16T19:27:00.819Z,10.27
2023-04-16T19:29:34.162Z,10.92
2023-04-16T19:32:04.829Z,11.02
2023-04-16T19:34:36.444Z,10.92
2023-04-16T19:37:15.071Z,10.39
2023-04-16T19:39:48.967Z,10.68
2023-04-16T19:42:28.431Z,10.89
2023-04-16T19:45:03.345Z,10.81
2023-04-16T19:47:38.913Z,9.75
2023-04-16T19:50:13.411Z,10.26
2023-04-16T19:52:43.081Z,10.93
2023-04-16T19:55:16.313Z,10.97
2023-04-16T19:57:45.887Z,10.78
2023-04-16T20:00:16.181Z,10.96
2023-04-16T20:02:45.811Z,10.94
2023-04-16T20:05:15.452Z,10.94
2023-04-16T20:07:47.364Z,10.75
2023-04-16T20:10:19.625Z,10.85
2023-04-16T20:12:50.944Z,10.98
2023-04-16T20:15:35.834Z,10.96
2023-04-16T20:18:05.354Z,10.86
2023-04-16T20:20:39.063Z,10.82
2023-04-16T20:23:11.825Z,10.79
2023-04-16T20:25:48.708Z,10.72
2023-04-16T20:28:21.494Z,10.95
2023-04-16T20:30:53.013Z,10.81
2023-04-16T20:33:22.108Z,10.74
2023-04-16T20:35:52.495Z,10.49
2023-04-16T20:38:23.876Z,10.45
2023-04-16T20:41:06.289Z,10.44
2023-04-16T20:43:38.748Z,10.29
2023-04-16T20:46:08.486Z,10.45
2023-04-16T20:48:41.186Z,10.44
2023-04-16T20:51:10.664Z,10.62
2023-04-16T20:53:39.895Z,10.50
2023-04-16T20:56:14.782Z,10.52
2023-04-16T20:58:44.694Z,10.47
2023-04-16T21:01:14.230Z,10.49
2023-04-16T21:03:44.017Z,10.34
2023-04-16T21:06:14.535Z,10.40
2023-04-16T21:08:44.371Z,10.06
2023-04-16T21:11:15.360Z,10.16
2023-04-16T21:13:45.149Z,9.65
2023-04-16T21:16:14.363Z,10.09
2023-04-16T21:18:43.604Z,10.09
2023-04-16T21:21:12.809Z,10.12
2023-04-16T21:23:44.569Z,9.93
2023-04-16T21:26:18.387Z,10.32
2023-04-16T21:28:49.573Z,10.20
2023-04-16T21:31:19.056Z,10.14
2023-04-16T21:33:48.389Z,10.09
2023-04-16T21:36:17.420Z,10.30
2023-04-16T21:38:46.531Z,10.11
2023-04-16T21:41:16.491Z,10.21
2023-04-16T21:43:47.048Z,10.27
2023-04-16T21:46:16.208Z,9.92
2023-04-16T21:48:45.479Z,9.96
2023-04-16T21:51:15.859Z,9.87
2023-04-16T21:53:45.029Z,9.99
2023-04-16T21:56:14.977Z,9.89
2023-04-16T21:58:44.113Z,9.74
2023-04-16T22:01:14.750Z,9.97
2023-04-16T22:03:43.689Z,10.09
2023-04-16T22:06:14.323Z,9.92
2023-04-16T22:08:43.521Z,9.78
2023-04-16T22:11:12.709Z,9.90
2023-04-16T22:13:42.589Z,9.85
2023-04-16T22:16:12.347Z,9.74
2023-04-16T22:18:43.007Z,9.76
2023-04-16T22:21:12.207Z,9.90
2023-04-16T22:23:41.453Z,9.91
2023-04-16T22:26:11.805Z,9.95
2023-04-16T22:28:40.961Z,9.94
2023-04-16T22:31:10.175Z,10.09
2023-04-16T22:33:39.773Z,10.06
2023-04-16T22:36:10.852Z,10.22
2023-04-16T22:38:39.787Z,9.63
2023-04-16T22:41:08.996Z,9.79
2023-04-16T22:43:38.787Z,9.82
2023-04-16T22:46:09.658Z,9.81
2023-04-16T22:48:39.575Z,9.76
2023-04-16T22:51:10.761Z,9.71
2023-04-16T22:53:39.621Z,9.63
2023-04-16T22:56:09.125Z,9.54
2023-04-16T22:58:38.520Z,9.53
2023-04-16T23:01:07.820Z,9.43
2023-04-16T23:03:37.343Z,9.60
2023-04-16T23:06:07.627Z,9.61
2023-04-16T23:08:38.328Z,9.80
2023-04-16T23:11:09.530Z,9.82
2023-04-16T23:13:39.019Z,9.84
2023-04-16T23:16:11.635Z,9.85
2023-04-16T23:18:40.937Z,9.80
2023-04-16T23:21:10.132Z,9.60
2023-04-16T23:23:40.469Z,9.80
2023-04-16T23:26:09.639Z,9.61
2023-04-16T23:28:38.534Z,9.74
2023-04-16T23:31:26.362Z,9.69
2023-04-16T23:33:55.636Z,9.85
2023-04-16T23:36:24.818Z,9.96
2023-04-16T23:38:55.436Z,9.73
2023-04-16T23:41:24.764Z,9.53
2023-04-16T23:43:53.951Z,9.54
2023-04-16T23:46:23.154Z,9.46
2023-04-16T23:48:55.236Z,9.67
2023-04-16T23:51:24.337Z,9.68
2023-04-16T23:53:54.847Z,9.80
2023-04-16T23:56:24.003Z,9.91
2023-04-16T23:58:53.138Z,9.89
